createdAt,value
2023-05-23T00:00:19.606Z,15.10
2023-05-23T00:02:47.158Z,15.07
2023-05-23T00:05:15.590Z,14.63
2023-05-23T00:07:42.886Z,17.20
2023-05-23T00:10:10.635Z,17.03
2023-05-23T00:12:42.444Z,17.30
2023-05-23T00:15:10.095Z,13.07
2023-05-23T00:17:38.362Z,13.50
2023-05-23T00:20:09.657Z,13.63
2023-05-23T00:22:39.786Z,13.10
2023-05-23T00:25:08.043Z,13.87
2023-05-23T00:27:35.061Z,14.50
2023-05-23T00:30:02.815Z,14.67
2023-05-23T00:32:29.756Z,14.33
2023-05-23T00:34:56.683Z,14.53
2023-05-23T00:37:23.742Z,14.73
2023-05-23T00:39:50.684Z,18.00
2023-05-23T00:42:17.732Z,24.40
2023-05-23T00:44:44.725Z,29.63
2023-05-23T00:47:13.878Z,32.10
2023-05-23T00:49:41.255Z,24.83
2023-05-23T00:52:08.331Z,25.27
2023-05-23T00:54:37.133Z,29.60
2023-05-23T00:57:04.574Z,27.80
2023-05-23T00:59:32.170Z,27.03
2023-05-23T01:02:00.817Z,28.87
2023-05-23T01:04:28.309Z,31.70
2023-05-23T01:06:56.770Z,33.63
2023-05-23T01:09:26.463Z,28.77
2023-05-23T01:12:26.096Z,25.27
2023-05-23T01:15:11.196Z,24.10
2023-05-23T01:18:08.463Z,26.13
2023-05-23T01:20:45.236Z,24.57
2023-05-23T01:23:52.397Z,23.77
2023-05-23T01:26:41.629Z,22.40
2023-05-23T01:29:43.242Z,24.30
2023-05-23T01:32:13.256Z,22.10
2023-05-23T01:34:42.593Z,22.77
2023-05-23T01:37:11.824Z,23.70
2023-05-23T01:39:39.239Z,24.07
2023-05-23T01:42:07.081Z,24.30
2023-05-23T01:44:35.790Z,29.77
2023-05-23T01:47:08.854Z,28.70
2023-05-23T01:49:37.332Z,28.77
2023-05-23T01:52:05.935Z,23.20
2023-05-23T01:54:35.490Z,24.63
2023-05-23T01:57:03.238Z,23.30
2023-05-23T01:59:30.301Z,22.83
2023-05-23T02:01:57.206Z,24.53
2023-05-23T02:04:24.189Z,23.13
2023-05-23T02:06:51.224Z,22.43
2023-05-23T02:09:18.222Z,20.83
2023-05-23T02:11:45.428Z,21.77
2023-05-23T02:14:12.971Z,22.77
2023-05-23T02:16:40.103Z,21.00
2023-05-23T02:19:07.096Z,21.00
2023-05-23T02:21:35.420Z,19.60
2023-05-23T02:24:02.760Z,23.70
2023-05-23T02:26:30.120Z,26.70
2023-05-23T02:28:57.043Z,26.30
2023-05-23T02:31:24.229Z,29.83
2023-05-23T02:33:51.201Z,20.47
2023-05-23T02:36:18.210Z,26.57
2023-05-23T02:38:45.183Z,27.60
2023-05-23T02:41:12.668Z,29.77
2023-05-23T02:43:39.776Z,23.10
2023-05-23T02:46:06.858Z,22.23
2023-05-23T02:48:33.853Z,27.67
2023-05-23T02:51:00.905Z,27.70
2023-05-23T02:53:27.987Z,30.07
2023-05-23T02:55:54.927Z,27.33
2023-05-23T02:58:21.875Z,26.37
2023-05-23T03:00:48.867Z,26.57
2023-05-23T03:03:16.980Z,23.87
2023-05-23T03:05:44.267Z,24.43
2023-05-23T03:08:11.263Z,25.77
2023-05-23T03:10:38.189Z,24.33
2023-05-23T03:13:05.388Z,30.50
2023-05-23T03:15:32.462Z,28.50
2023-05-23T03:17:59.536Z,25.63
2023-05-23T03:20:26.518Z,29.57
2023-05-23T03:22:53.639Z,31.23
2023-05-23T03:25:20.624Z,32.07
2023-05-23T03:27:47.679Z,29.17
2023-05-23T03:30:14.774Z,34.27
2023-05-23T03:32:42.260Z,35.07
2023-05-23T03:35:09.830Z,35.00
2023-05-23T03:37:36.875Z,36.17
2023-05-23T03:40:04.843Z,36.27
2023-05-23T03:42:32.154Z,36.30
2023-05-23T03:44:59.135Z,38.90
2023-05-23T03:47:26.310Z,39.53
2023-05-23T03:49:53.487Z,39.97
2023-05-23T03:52:20.564Z,37.20
2023-05-23T03:54:47.610Z,38.43
2023-05-23T03:57:14.704Z,39.50
2023-05-23T03:59:41.753Z,37.60
2023-05-23T04:02:08.815Z,38.03
2023-05-23T04:04:36.277Z,37.53
2023-05-23T04:07:05.609Z,38.23
2023-05-23T04:09:32.624Z,37.40
2023-05-23T04:11:59.525Z,36.00
2023-05-23T04:14:27.500Z,35.40
2023-05-23T04:16:54.595Z,32.77
2023-05-23T04:19:21.597Z,38.50
2023-05-23T04:21:48.518Z,36.27
2023-05-23T04:24:15.694Z,36.10
2023-05-23T04:26:43.061Z,35.83
2023-05-23T04:29:12.234Z,36.60
2023-05-23T04:31:39.400Z,36.33
2023-05-23T04:34:07.952Z,34.30
2023-05-23T04:36:38.109Z,36.50
2023-05-23T04:39:08.591Z,36.03
2023-05-23T04:41:36.424Z,35.90
2023-05-23T04:44:03.742Z,35.00
2023-05-23T04:46:30.878Z,35.60
2023-05-23T04:48:59.053Z,32.23
2023-05-23T04:51:26.031Z,31.80
2023-05-23T04:53:53.157Z,34.37
2023-05-23T04:56:22.876Z,33.50
2023-05-23T04:58:49.861Z,30.87
2023-05-23T05:01:16.934Z,30.37
2023-05-23T05:03:44.017Z,29.17
2023-05-23T05:06:10.981Z,27.30
2023-05-23T05:08:38.082Z,28.43
2023-05-23T05:11:05.109Z,30.20
2023-05-23T05:13:32.134Z,28.80
2023-05-23T05:15:59.353Z,27.57
2023-05-23T05:18:27.259Z,27.50
2023-05-23T05:20:54.251Z,26.00
2023-05-23T05:23:24.975Z,27.03
2023-05-23T05:25:52.079Z,23.20
2023-05-23T05:28:19.013Z,25.20
2023-05-23T05:30:46.623Z,23.93
2023-05-23T05:33:13.754Z,23.13
2023-05-23T05:35:40.784Z,23.03
2023-05-23T05:38:08.661Z,22.67
2023-05-23T05:40:35.804Z,23.10
2023-05-23T05:43:02.863Z,23.73
2023-05-23T05:45:29.898Z,23.40
2023-05-23T05:47:56.949Z,23.10
2023-05-23T05:50:24.572Z,22.90
2023-05-23T05:52:51.518Z,22.50
2023-05-23T05:55:18.499Z,22.80
2023-05-23T05:57:45.499Z,21.70
2023-05-23T06:00:19.112Z,20.30
2023-05-23T06:02:54.970Z,20.77
2023-05-23T06:05:22.139Z,19.97
2023-05-23T06:07:50.642Z,20.23
2023-05-23T06:10:17.890Z,21.03
2023-05-23T06:12:45.821Z,20.90
2023-05-23T06:15:16.043Z,21.10
2023-05-23T06:17:44.881Z,14.80
2023-05-23T06:20:12.354Z,14.73
2023-05-23T06:22:39.672Z,13.10
2023-05-23T06:25:07.812Z,14.00
2023-05-23T06:27:34.732Z,13.70
2023-05-23T06:30:03.334Z,12.70
2023-05-23T06:32:30.399Z,13.80
2023-05-23T06:34:57.347Z,13.93
2023-05-23T06:37:24.934Z,13.17
2023-05-23T06:39:51.913Z,11.97
2023-05-23T06:42:18.892Z,12.67
2023-05-23T06:44:45.997Z,12.40
2023-05-23T06:47:12.929Z,10.97
2023-05-23T06:49:39.895Z,11.17
2023-05-23T06:52:06.863Z,11.00
2023-05-23T06:54:33.825Z,10.20
2023-05-23T06:57:00.888Z,11.57
2023-05-23T06:59:27.852Z,11.23
2023-05-23T07:01:54.777Z,11.03
2023-05-23T07:04:21.711Z,10.40
2023-05-23T07:06:49.340Z,11.10
2023-05-23T07:09:16.397Z,11.23
2023-05-23T07:11:43.461Z,10.40
2023-05-23T07:14:10.433Z,10.10
2023-05-23T07:16:37.602Z,11.03
2023-05-23T07:19:05.554Z,11.10
2023-05-23T07:21:32.628Z,11.80
2023-05-23T07:24:00.626Z,13.00
2023-05-23T07:26:27.716Z,13.17
2023-05-23T07:28:54.826Z,12.60
2023-05-23T07:31:21.851Z,12.00
2023-05-23T07:33:49.124Z,13.27
2023-05-23T07:36:16.762Z,12.50
2023-05-23T07:38:43.828Z,12.40
2023-05-23T07:41:12.328Z,13.70
2023-05-23T07:43:40.863Z,14.20
2023-05-23T07:46:08.141Z,14.50
2023-05-23T07:48:35.632Z,14.80
2023-05-23T07:51:02.572Z,15.63
2023-05-23T07:53:29.581Z,14.50
2023-05-23T07:55:56.859Z,14.47
2023-05-23T07:58:23.855Z,15.97
2023-05-23T08:00:52.702Z,15.83
2023-05-23T08:03:20.181Z,14.70
2023-05-23T08:05:47.796Z,14.70
2023-05-23T08:08:14.841Z,14.70
2023-05-23T08:10:41.970Z,14.93
2023-05-23T08:13:14.825Z,12.63
2023-05-23T08:15:41.770Z,13.23
2023-05-23T08:18:08.978Z,9.90
2023-05-23T08:20:36.412Z,9.60
2023-05-23T08:23:03.448Z,8.20
2023-05-23T08:25:33.517Z,7.87
2023-05-23T08:28:01.442Z,7.67
2023-05-23T08:30:29.374Z,7.20
2023-05-23T08:32:57.887Z,6.87
2023-05-23T08:35:24.915Z,6.60
2023-05-23T08:37:52.485Z,6.23
2023-05-23T08:40:22.616Z,6.10
2023-05-23T08:42:51.094Z,5.17
2023-05-23T08:45:18.678Z,5.10
2023-05-23T08:47:47.414Z,5.20
2023-05-23T08:50:18.551Z,5.30
2023-05-23T08:52:58.742Z,4.97
2023-05-23T08:55:28.451Z,4.37
2023-05-23T08:57:59.386Z,4.40
2023-05-23T09:00:28.011Z,4.70
2023-05-23T09:02:55.545Z,3.90
2023-05-23T09:05:22.844Z,4.10
2023-05-23T09:07:51.087Z,4.97
2023-05-23T09:10:22.026Z,4.67
2023-05-23T09:12:49.607Z,4.70
2023-05-23T09:15:17.368Z,4.33
2023-05-23T09:17:45.550Z,4.40
2023-05-23T09:20:15.661Z,4.80
2023-05-23T09:22:50.692Z,4.47
2023-05-23T09:25:17.764Z,3.87
2023-05-23T09:27:47.777Z,4.90
2023-05-23T09:30:15.791Z,4.40
2023-05-23T09:32:44.620Z,4.57
2023-05-23T09:35:14.020Z,4.33
2023-05-23T09:37:49.018Z,4.20
2023-05-23T09:40:16.621Z,4.93
2023-05-23T09:42:45.188Z,4.00
2023-05-23T09:45:16.781Z,4.10
2023-05-23T09:47:52.120Z,4.50
2023-05-23T09:50:20.391Z,3.73
2023-05-23T09:52:48.073Z,4.03
2023-05-23T09:55:15.262Z,4.40
2023-05-23T09:57:43.967Z,3.87
2023-05-23T10:00:15.116Z,4.40
2023-05-23T10:03:11.055Z,4.10
2023-05-23T10:05:51.906Z,3.83
2023-05-23T10:08:29.860Z,3.23
2023-05-23T10:10:56.903Z,3.37
2023-05-23T10:13:28.932Z,3.77
2023-05-23T10:16:40.192Z,3.03
2023-05-23T10:19:18.035Z,3.30
2023-05-23T10:21:56.974Z,3.43
2023-05-23T10:24:26.657Z,3.37
2023-05-23T10:26:55.457Z,4.30
2023-05-23T10:29:23.651Z,3.57
2023-05-23T10:31:53.020Z,3.33
2023-05-23T10:34:57.888Z,3.60
2023-05-23T10:38:00.159Z,2.80
2023-05-23T10:40:27.028Z,3.50
2023-05-23T10:43:14.027Z,3.20
2023-05-23T10:45:43.216Z,2.83
2023-05-23T10:48:32.652Z,2.50
2023-05-23T10:51:11.203Z,2.70
2023-05-23T10:53:44.674Z,2.90
2023-05-23T10:56:24.138Z,2.83
2023-05-23T10:58:55.499Z,2.53
2023-05-23T11:01:23.930Z,2.47
2023-05-23T11:03:55.174Z,2.17
2023-05-23T11:06:44.655Z,2.57
2023-05-23T11:09:22.292Z,2.90
2023-05-23T11:11:52.362Z,2.97
2023-05-23T11:14:20.916Z,2.90
2023-05-23T11:16:49.154Z,2.87
2023-05-23T11:19:19.326Z,3.10
2023-05-23T11:22:03.101Z,3.00
2023-05-23T11:24:54.798Z,3.47
2023-05-23T11:27:30.983Z,2.80
2023-05-23T11:30:04.408Z,3.03
2023-05-23T11:32:31.999Z,3.33
2023-05-23T11:35:07.744Z,3.53
2023-05-23T11:37:35.403Z,3.00
2023-05-23T11:40:41.656Z,3.00
2023-05-23T11:43:16.557Z,3.40
2023-05-23T11:45:44.060Z,3.20
2023-05-23T11:48:13.854Z,2.90
2023-05-23T11:50:54.477Z,3.40
2023-05-23T11:53:25.224Z,3.23
2023-05-23T11:55:59.947Z,3.70
2023-05-23T11:58:36.014Z,3.03
2023-05-23T12:01:12.105Z,3.20
2023-05-23T12:03:51.118Z,2.87
2023-05-23T12:06:24.673Z,3.23
2023-05-23T12:08:54.716Z,3.07
2023-05-23T12:11:23.721Z,3.23
2023-05-23T12:13:53.642Z,3.30
2023-05-23T12:16:21.616Z,3.60
2023-05-23T12:18:48.990Z,3.93
2023-05-23T12:21:15.987Z,3.40
2023-05-23T12:23:43.060Z,3.53
2023-05-23T12:26:10.389Z,3.33
2023-05-23T12:28:45.598Z,2.80
2023-05-23T12:31:22.296Z,3.80
2023-05-23T12:33:52.563Z,3.60
2023-05-23T12:36:26.120Z,3.50
2023-05-23T12:38:53.809Z,3.40
2023-05-23T12:41:22.019Z,3.97
2023-05-23T12:43:54.370Z,3.43
2023-05-23T12:46:23.704Z,3.77
2023-05-23T12:48:51.428Z,3.00
2023-05-23T12:51:18.829Z,2.77
2023-05-23T12:53:46.333Z,3.57
2023-05-23T12:56:13.369Z,3.50
2023-05-23T12:58:40.353Z,3.33
2023-05-23T13:01:07.545Z,3.93
2023-05-23T13:03:34.775Z,3.67
2023-05-23T13:06:02.680Z,4.17
2023-05-23T13:08:29.632Z,3.80
2023-05-23T13:10:57.722Z,4.00
2023-05-23T13:13:24.944Z,4.27
2023-05-23T13:15:52.140Z,4.10
2023-05-23T13:18:19.359Z,3.90
2023-05-23T13:20:46.580Z,3.80
2023-05-23T13:23:14.027Z,4.30
2023-05-23T13:25:41.484Z,4.60
2023-05-23T13:28:08.932Z,4.80
2023-05-23T13:30:35.870Z,5.33
2023-05-23T13:33:03.621Z,4.90
2023-05-23T13:35:30.867Z,6.13
2023-05-23T13:37:57.809Z,5.93
2023-05-23T13:40:24.928Z,5.97
2023-05-23T13:42:52.120Z,6.10
2023-05-23T13:45:20.226Z,5.67
2023-05-23T13:47:47.576Z,5.10
2023-05-23T13:50:14.981Z,6.43
2023-05-23T13:52:44.865Z,5.80
2023-05-23T13:55:12.952Z,5.17
2023-05-23T13:57:39.889Z,5.67
2023-05-23T14:00:09.479Z,5.37
2023-05-23T14:02:36.706Z,5.20
2023-05-23T14:05:04.227Z,5.20
2023-05-23T14:07:31.565Z,5.00
2023-05-23T14:09:59.798Z,5.50
2023-05-23T14:12:27.068Z,5.50
2023-05-23T14:14:54.090Z,5.57
2023-05-23T14:17:21.249Z,5.37
2023-05-23T14:19:48.423Z,4.67
2023-05-23T14:22:15.506Z,5.10
2023-05-23T14:24:42.536Z,5.27
2023-05-23T14:27:11.234Z,6.33
2023-05-23T14:29:39.097Z,6.30
2023-05-23T14:32:06.610Z,7.20
2023-05-23T14:34:33.914Z,7.07
2023-05-23T14:37:01.402Z,5.97
2023-05-23T14:39:29.206Z,5.93
2023-05-23T14:41:56.475Z,5.73
2023-05-23T14:44:23.813Z,5.67
2023-05-23T14:46:50.929Z,6.53
2023-05-23T14:49:18.102Z,5.83
2023-05-23T14:51:50.733Z,5.87
2023-05-23T14:54:19.729Z,5.30
2023-05-23T14:56:46.944Z,5.43
2023-05-23T14:59:14.063Z,5.70
2023-05-23T15:01:42.899Z,5.63
2023-05-23T15:04:10.352Z,5.37
2023-05-23T15:06:39.249Z,5.10
2023-05-23T15:09:09.373Z,6.10
2023-05-23T15:11:39.192Z,5.87
2023-05-23T15:14:06.621Z,7.50
2023-05-23T15:16:35.181Z,7.30
2023-05-23T15:19:02.639Z,7.27
2023-05-23T15:21:29.715Z,6.73
2023-05-23T15:23:57.754Z,7.00
2023-05-23T15:26:25.339Z,6.50
2023-05-23T15:28:52.340Z,7.10
2023-05-23T15:31:19.376Z,7.47
2023-05-23T15:33:47.816Z,6.43
2023-05-23T15:36:14.965Z,6.73
2023-05-23T15:38:42.047Z,6.57
2023-05-23T15:41:09.073Z,8.23
2023-05-23T15:43:36.107Z,7.20
2023-05-23T15:46:03.384Z,8.03
2023-05-23T15:48:30.515Z,6.90
2023-05-23T15:50:57.618Z,7.30
2023-05-23T15:53:24.584Z,6.70
2023-05-23T15:55:51.563Z,6.80
2023-05-23T15:58:18.500Z,7.33
2023-05-23T16:00:45.486Z,6.30
2023-05-23T16:03:12.611Z,7.03
2023-05-23T16:05:39.778Z,7.27
2023-05-23T16:08:07.066Z,8.47
2023-05-23T16:10:34.038Z,7.70
2023-05-23T16:13:01.157Z,8.03
2023-05-23T16:15:28.166Z,9.20
2023-05-23T16:17:55.346Z,7.73
2023-05-23T16:20:22.280Z,8.07
2023-05-23T16:22:49.222Z,9.07
2023-05-23T16:25:16.160Z,8.07
2023-05-23T16:27:43.225Z,8.23
2023-05-23T16:30:10.585Z,8.00
2023-05-23T16:32:37.664Z,8.03
2023-05-23T16:35:05.004Z,7.50
2023-05-23T16:37:31.958Z,9.10
2023-05-23T16:39:59.128Z,7.70
2023-05-23T16:42:26.192Z,8.00
2023-05-23T16:44:53.498Z,8.10
2023-05-23T16:47:20.536Z,8.30
2023-05-23T16:49:47.453Z,8.30
2023-05-23T16:52:14.641Z,8.30
2023-05-23T16:54:41.675Z,9.10
2023-05-23T16:57:08.901Z,8.93
2023-05-23T16:59:35.890Z,9.10
2023-05-23T17:02:03.317Z,9.60
2023-05-23T17:04:30.257Z,9.97
2023-05-23T17:06:57.277Z,10.40
2023-05-23T17:09:24.215Z,10.13
2023-05-23T17:11:52.239Z,8.50
2023-05-23T17:14:19.707Z,9.70
2023-05-23T17:16:46.678Z,10.60
2023-05-23T17:19:13.757Z,10.17
2023-05-23T17:21:41.209Z,9.03
2023-05-23T17:24:08.252Z,10.77
2023-05-23T17:26:35.653Z,11.53
2023-05-23T17:29:02.614Z,10.03
2023-05-23T17:31:30.787Z,11.57
2023-05-23T17:33:58.284Z,12.33
2023-05-23T17:36:25.243Z,13.23
2023-05-23T17:38:54.954Z,12.60
2023-05-23T17:41:24.882Z,11.73
2023-05-23T17:43:51.856Z,13.23
2023-05-23T17:46:18.876Z,11.60
2023-05-23T17:48:48.045Z,13.20
2023-05-23T17:51:15.892Z,12.40
2023-05-23T17:53:43.350Z,13.77
2023-05-23T17:56:11.312Z,12.70
2023-05-23T17:58:40.953Z,13.90
2023-05-23T18:01:11.593Z,12.83
2023-05-23T18:03:39.039Z,13.33
2023-05-23T18:06:06.820Z,12.37
2023-05-23T18:08:33.846Z,11.67
2023-05-23T18:11:00.891Z,12.70
2023-05-23T18:13:27.880Z,13.17
2023-05-23T18:15:54.873Z,11.97
2023-05-23T18:18:22.641Z,13.00
2023-05-23T18:20:49.602Z,12.80
2023-05-23T18:23:18.406Z,12.37
2023-05-23T18:25:45.540Z,11.50
2023-05-23T18:28:12.589Z,10.53
2023-05-23T18:30:39.706Z,10.40
2023-05-23T18:33:07.325Z,10.40
2023-05-23T18:35:34.405Z,10.97
2023-05-23T18:38:01.468Z,11.13
2023-05-23T18:40:28.422Z,10.60
2023-05-23T18:42:55.784Z,11.10
2023-05-23T18:45:22.823Z,11.40
2023-05-23T18:50:17.047Z,12.77
2023-05-23T18:52:44.426Z,12.40
2023-05-23T18:55:11.782Z,10.67
2023-05-23T18:57:39.165Z,10.67
2023-05-23T19:00:07.436Z,11.20
2023-05-23T19:02:35.030Z,10.13
2023-05-23T19:05:02.537Z,10.33
2023-05-23T19:07:29.541Z,10.93
2023-05-23T19:09:56.588Z,9.47
2023-05-23T19:12:23.584Z,10.80
2023-05-23T19:14:50.640Z,9.10
2023-05-23T19:17:17.568Z,8.93
2023-05-23T19:19:44.661Z,9.27
2023-05-23T19:22:12.134Z,10.70
2023-05-23T19:24:39.428Z,9.57
2023-05-23T19:27:06.772Z,9.70
2023-05-23T19:29:33.852Z,8.80
2023-05-23T19:32:00.910Z,9.70
2023-05-23T19:34:28.369Z,9.43
2023-05-23T19:36:55.429Z,8.97
2023-05-23T19:39:22.493Z,9.40
2023-05-23T19:41:49.852Z,9.70
2023-05-23T19:44:16.934Z,10.43
2023-05-23T19:46:44.030Z,8.67
2023-05-23T19:49:10.997Z,8.97
2023-05-23T19:51:38.255Z,9.93
2023-05-23T19:54:05.717Z,8.80
2023-05-23T19:56:34.273Z,9.00
2023-05-23T19:59:01.443Z,8.83
2023-05-23T20:01:30.732Z,9.00
2023-05-23T20:03:57.770Z,10.07
2023-05-23T20:06:24.751Z,10.20
2023-05-23T20:08:51.903Z,8.23
2023-05-23T20:11:19.095Z,9.17
2023-05-23T20:13:46.086Z,10.03
2023-05-23T20:16:13.186Z,8.43
2023-05-23T20:18:42.922Z,8.53
2023-05-23T20:21:09.971Z,8.13
2023-05-23T20:23:37.061Z,9.53
2023-05-23T20:26:04.242Z,8.13
2023-05-23T20:28:32.795Z,8.57
2023-05-23T20:30:59.775Z,8.60
2023-05-23T20:33:26.739Z,7.83
2023-05-23T20:35:54.054Z,7.77
2023-05-23T20:38:21.047Z,7.30
2023-05-23T20:40:52.425Z,6.70
2023-05-23T20:43:22.242Z,6.53
2023-05-23T20:45:49.308Z,6.53
2023-05-23T20:48:16.630Z,7.20
2023-05-23T20:50:44.124Z,6.10
2023-05-23T20:53:11.426Z,6.33
2023-05-23T20:55:38.399Z,6.40
2023-05-23T20:58:06.831Z,6.13
2023-05-23T21:00:33.951Z,6.00
2023-05-23T21:03:02.186Z,6.60
2023-05-23T21:05:29.595Z,6.20
2023-05-23T21:07:56.544Z,6.53
2023-05-23T21:10:23.606Z,6.80
2023-05-23T21:12:50.813Z,6.53
2023-05-23T21:15:18.763Z,5.73
2023-05-23T21:17:46.302Z,6.20
2023-05-23T21:20:13.823Z,6.27
2023-05-23T21:22:41.213Z,5.80
2023-05-23T21:25:08.763Z,6.03
2023-05-23T21:27:35.843Z,6.20
2023-05-23T21:30:04.349Z,6.43
2023-05-23T21:32:31.378Z,6.43
2023-05-23T21:34:58.352Z,6.67
2023-05-23T21:37:25.716Z,6.50
2023-05-23T21:39:52.882Z,5.97
2023-05-23T21:42:20.988Z,5.20
2023-05-23T21:44:48.162Z,5.40
2023-05-23T21:47:15.124Z,5.57
2023-05-23T21:49:42.313Z,6.23
2023-05-23T21:52:09.346Z,6.30
2023-05-23T21:54:36.354Z,5.60
2023-05-23T21:57:03.549Z,6.20
2023-05-23T21:59:30.524Z,5.73
2023-05-23T22:01:57.863Z,5.33
2023-05-23T22:04:24.958Z,6.00
2023-05-23T22:06:52.421Z,7.07
2023-05-23T22:09:19.587Z,5.33
2023-05-23T22:11:46.512Z,6.00
2023-05-23T22:14:13.468Z,6.07
2023-05-23T22:16:40.846Z,6.03
2023-05-23T22:19:12.489Z,6.40
2023-05-23T22:21:40.529Z,5.50
2023-05-23T22:24:07.716Z,7.00
2023-05-23T22:26:34.630Z,5.30
2023-05-23T22:29:02.093Z,5.87
2023-05-23T22:31:29.170Z,6.83
2023-05-23T22:33:56.321Z,6.30
2023-05-23T22:36:23.488Z,6.07
2023-05-23T22:38:50.766Z,5.77
2023-05-23T22:41:18.107Z,5.17
2023-05-23T22:43:45.664Z,5.70
2023-05-23T22:46:12.744Z,5.80
2023-05-23T22:48:39.894Z,6.60
2023-05-23T22:51:08.189Z,5.57
2023-05-23T22:53:35.328Z,5.93
2023-05-23T22:56:02.810Z,5.70
2023-05-23T22:58:29.799Z,6.60
2023-05-23T23:00:56.838Z,5.40
2023-05-23T23:03:23.892Z,5.83
2023-05-23T23:05:50.942Z,5.60
2023-05-23T23:08:19.352Z,5.90
2023-05-23T23:10:46.524Z,6.17
2023-05-23T23:13:16.256Z,6.17
2023-05-23T23:15:43.981Z,5.83
2023-05-23T23:18:13.496Z,6.20
2023-05-23T23:20:41.295Z,6.00
2023-05-23T23:23:08.730Z,5.83
2023-05-23T23:25:36.530Z,6.07
2023-05-23T23:28:03.717Z,5.90
2023-05-23T23:30:30.818Z,5.97
2023-05-23T23:32:58.147Z,6.17
2023-05-23T23:35:25.222Z,5.90
2023-05-23T23:37:52.161Z,5.67
2023-05-23T23:40:19.213Z,6.00
2023-05-23T23:42:46.431Z,7.30
2023-05-23T23:45:13.419Z,6.07
2023-05-23T23:47:42.484Z,5.23
2023-05-23T23:50:09.593Z,6.40
2023-05-23T23:52:39.094Z,6.10
2023-05-23T23:55:06.945Z,6.30
2023-05-23T23:57:33.923Z,5.20
